createdAt,value
2023-05-28T00:01:49.569Z,75.29
2023-05-28T00:04:17.398Z,76.21
2023-05-28T00:06:44.081Z,76.65
2023-05-28T00:09:11.455Z,76.94
2023-05-28T00:11:39.775Z,77.40
2023-05-28T00:14:06.501Z,78.59
2023-05-28T00:16:36.539Z,78.68
2023-05-28T00:19:04.137Z,78.59
2023-05-28T00:21:36.406Z,79.48
2023-05-28T00:24:04.022Z,80.35
2023-05-28T00:26:33.288Z,80.36
2023-05-28T00:28:59.805Z,81.57
2023-05-28T00:31:30.297Z,80.81
2023-05-28T00:33:57.797Z,82.01
2023-05-28T00:36:24.350Z,82.86
2023-05-28T00:38:50.928Z,83.84
2023-05-28T00:41:26.018Z,84.18
2023-05-28T00:43:53.118Z,84.22
2023-05-28T00:46:23.262Z,84.77
2023-05-28T00:48:51.436Z,84.72
2023-05-28T00:53:45.311Z,85.37
2023-05-28T00:56:14.529Z,85.85
2023-05-28T00:58:44.601Z,85.77
2023-05-28T01:01:11.486Z,86.17
2023-05-28T01:03:39.659Z,85.93
2023-05-28T01:06:14.746Z,86.70
2023-05-28T01:08:44.472Z,85.73
2023-05-28T01:11:16.322Z,86.63
2023-05-28T01:13:49.600Z,87.54
2023-05-28T01:16:16.248Z,87.12
2023-05-28T01:18:45.753Z,88.60
2023-05-28T01:21:22.110Z,87.20
2023-05-28T01:23:50.561Z,87.18
2023-05-28T01:26:17.738Z,86.74
2023-05-28T01:28:50.151Z,86.28
2023-05-28T01:31:19.619Z,87.15
2023-05-28T01:33:46.999Z,87.62
2023-05-28T01:37:00.382Z,89.61
2023-05-28T01:39:30.385Z,88.90
2023-05-28T01:42:09.383Z,87.82
2023-05-28T01:44:36.585Z,93.45
2023-05-28T01:47:03.444Z,93.75
2023-05-28T01:49:30.446Z,94.05
2023-05-28T01:51:58.013Z,93.33
2023-05-28T01:54:26.838Z,93.90
2023-05-28T01:56:55.544Z,94.39
2023-05-28T01:59:23.823Z,93.71
2023-05-28T02:01:50.907Z,93.67
2023-05-28T02:04:17.757Z,93.34
2023-05-28T02:06:47.025Z,92.45
2023-05-28T02:09:13.755Z,93.92
2023-05-28T02:11:44.708Z,93.35
2023-05-28T02:14:15.392Z,93.18
2023-05-28T02:16:43.682Z,92.56
2023-05-28T02:19:13.857Z,92.49
2023-05-28T02:21:40.586Z,92.50
2023-05-28T02:24:07.378Z,91.21
2023-05-28T02:26:35.780Z,91.21
2023-05-28T02:29:02.826Z,92.50
2023-05-28T02:31:29.644Z,93.58
2023-05-28T02:33:58.495Z,94.17
2023-05-28T02:36:25.144Z,94.52
2023-05-28T02:38:51.658Z,95.12
2023-05-28T02:41:20.454Z,95.13
2023-05-28T02:43:48.893Z,95.16
2023-05-28T02:46:15.496Z,96.24
2023-05-28T02:48:43.867Z,95.21
2023-05-28T02:51:11.328Z,95.22
2023-05-28T02:53:38.023Z,95.34
2023-05-28T02:56:06.726Z,94.62
2023-05-28T02:58:33.481Z,93.66
2023-05-28T03:01:00.159Z,93.73
2023-05-28T03:03:39.539Z,94.43
2023-05-28T03:06:08.180Z,94.03
2023-05-28T03:08:35.119Z,94.18
2023-05-28T03:11:03.425Z,94.02
2023-05-28T03:13:29.979Z,93.42
2023-05-28T03:15:56.750Z,92.59
2023-05-28T03:18:29.747Z,92.86
2023-05-28T03:20:56.421Z,92.60
2023-05-28T03:23:22.940Z,92.52
2023-05-28T03:25:51.388Z,92.28
2023-05-28T03:28:18.150Z,92.53
2023-05-28T03:30:44.928Z,92.69
2023-05-28T03:33:13.355Z,94.26
2023-05-28T03:35:39.897Z,96.02
2023-05-28T03:38:06.450Z,96.22
2023-05-28T03:40:35.439Z,97.17
2023-05-28T03:43:02.233Z,97.82
2023-05-28T03:45:28.736Z,98.16
2023-05-28T03:47:55.506Z,98.32
2023-05-28T03:50:22.240Z,98.54
2023-05-28T03:52:48.764Z,98.69
2023-05-28T03:55:18.415Z,98.31
2023-05-28T03:57:45.030Z,98.41
2023-05-28T04:00:12.381Z,99.31
2023-05-28T04:02:40.827Z,98.97
2023-05-28T04:05:08.447Z,98.41
2023-05-28T04:07:35.190Z,97.95
2023-05-28T04:10:02.306Z,97.81
2023-05-28T04:12:28.821Z,97.15
2023-05-28T04:14:55.615Z,96.57
2023-05-28T04:17:24.286Z,96.09
2023-05-28T04:19:52.364Z,96.71
2023-05-28T04:22:18.942Z,96.45
2023-05-28T04:24:48.643Z,93.86
2023-05-28T04:27:19.097Z,90.58
2023-05-28T04:29:46.474Z,87.02
2023-05-28T04:32:13.252Z,83.56
2023-05-28T04:34:41.890Z,81.24
2023-05-28T04:37:09.055Z,79.92
2023-05-28T04:39:35.917Z,78.24
2023-05-28T04:42:04.515Z,77.25
2023-05-28T04:44:31.996Z,76.64
2023-05-28T04:47:01.789Z,74.31
2023-05-28T04:49:28.617Z,71.04
2023-05-28T04:51:55.154Z,69.19
2023-05-28T04:54:23.682Z,67.64
2023-05-28T04:56:50.412Z,66.30
2023-05-28T04:59:17.162Z,65.70
2023-05-28T05:01:43.971Z,64.88
2023-05-28T05:04:10.739Z,63.99
2023-05-28T05:06:37.372Z,66.77
2023-05-28T05:09:10.381Z,65.65
2023-05-28T05:11:36.978Z,64.15
2023-05-28T05:14:03.718Z,63.65
2023-05-28T05:16:30.881Z,62.28
2023-05-28T05:18:57.538Z,60.02
2023-05-28T05:21:26.152Z,57.53
2023-05-28T05:23:54.496Z,56.18
2023-05-28T05:26:22.441Z,55.69
2023-05-28T05:28:49.012Z,56.78
2023-05-28T05:31:20.207Z,56.25
2023-05-28T05:33:48.968Z,56.20
2023-05-28T05:36:15.557Z,55.78
2023-05-28T05:38:43.816Z,55.15
2023-05-28T05:41:11.580Z,55.10
2023-05-28T05:43:38.160Z,54.80
2023-05-28T05:46:11.292Z,53.72
2023-05-28T05:48:37.838Z,53.05
2023-05-28T05:51:04.595Z,52.79
2023-05-28T05:53:33.541Z,54.36
2023-05-28T05:56:01.804Z,54.93
2023-05-28T05:58:29.819Z,54.05
2023-05-28T06:00:56.742Z,53.75
2023-05-28T06:03:23.270Z,55.11
2023-05-28T06:05:51.170Z,55.70
2023-05-28T06:08:26.347Z,55.90
2023-05-28T06:10:52.910Z,56.50
2023-05-28T06:13:19.656Z,57.57
2023-05-28T06:15:46.662Z,55.67
2023-05-28T06:18:13.437Z,58.45
2023-05-28T06:20:40.556Z,58.67
2023-05-28T06:23:09.477Z,59.52
2023-05-28T06:25:36.429Z,57.17
2023-05-28T06:28:03.268Z,56.17
2023-05-28T06:30:32.253Z,57.25
2023-05-28T06:33:00.502Z,56.50
2023-05-28T06:35:28.984Z,54.82
2023-05-28T06:37:57.395Z,58.04
2023-05-28T06:40:24.163Z,57.29
2023-05-28T06:42:50.774Z,57.13
2023-05-28T06:45:18.925Z,56.33
2023-05-28T06:47:47.048Z,55.70
2023-05-28T06:50:13.830Z,55.13
2023-05-28T06:52:42.356Z,53.75
2023-05-28T06:55:09.793Z,53.76
2023-05-28T06:57:37.614Z,55.20
2023-05-28T07:00:12.109Z,54.52
2023-05-28T07:02:44.508Z,53.16
2023-05-28T07:05:18.031Z,53.39
2023-05-28T07:07:44.693Z,52.11
2023-05-28T07:10:12.481Z,50.38
2023-05-28T07:12:40.824Z,49.73
2023-05-28T07:15:08.181Z,49.23
2023-05-28T07:17:34.743Z,48.70
2023-05-28T07:20:03.251Z,48.93
2023-05-28T07:22:29.832Z,48.57
2023-05-28T07:27:58.049Z,47.60
2023-05-28T07:30:26.315Z,46.60
2023-05-28T07:32:52.995Z,46.75
2023-05-28T07:35:21.723Z,45.83
2023-05-28T07:37:48.306Z,45.25
2023-05-28T07:40:15.401Z,44.04
2023-05-28T07:42:51.581Z,43.37
2023-05-28T07:45:19.532Z,44.01
2023-05-28T07:47:46.484Z,45.68
2023-05-28T07:50:15.624Z,44.49
2023-05-28T07:52:42.491Z,44.09
2023-05-28T07:55:09.410Z,37.90
2023-05-28T07:57:36.246Z,41.06
2023-05-28T08:00:07.274Z,43.31
2023-05-28T08:02:36.354Z,40.95
2023-05-28T08:05:05.115Z,41.50
2023-05-28T08:07:32.764Z,42.74
2023-05-28T08:09:59.290Z,42.02
2023-05-28T08:12:26.088Z,37.46
2023-05-28T08:14:52.864Z,40.40
2023-05-28T08:17:22.083Z,42.96
2023-05-28T08:19:59.783Z,41.21
2023-05-28T08:22:28.044Z,42.37
2023-05-28T08:25:08.063Z,38.86
2023-05-28T08:27:37.022Z,40.24
2023-05-28T08:30:03.852Z,41.11
2023-05-28T08:32:31.759Z,41.09
2023-05-28T08:34:58.291Z,41.71
2023-05-28T08:37:24.873Z,41.39
2023-05-28T08:40:03.451Z,40.97
2023-05-28T08:42:35.221Z,39.77
2023-05-28T08:45:04.485Z,40.36
2023-05-28T08:47:36.377Z,42.45
2023-05-28T08:50:07.440Z,40.67
2023-05-28T08:52:35.175Z,41.24
2023-05-28T08:55:02.469Z,41.29
2023-05-28T08:57:30.693Z,39.94
2023-05-28T08:59:59.565Z,40.14
2023-05-28T09:02:32.635Z,40.94
2023-05-28T09:04:59.166Z,41.21
2023-05-28T09:07:27.478Z,40.76
2023-05-28T09:09:54.610Z,41.25
2023-05-28T09:12:22.655Z,40.98
2023-05-28T09:14:58.815Z,40.97
2023-05-28T09:17:38.781Z,40.57
2023-05-28T09:20:20.607Z,39.99
2023-05-28T09:22:58.720Z,40.11
2023-05-28T09:25:29.803Z,39.19
2023-05-28T09:27:57.892Z,40.84
2023-05-28T09:30:25.724Z,39.75
2023-05-28T09:33:05.539Z,40.33
2023-05-28T09:35:34.722Z,40.29
2023-05-28T09:38:10.362Z,39.47
2023-05-28T09:40:46.392Z,39.13
2023-05-28T09:43:13.837Z,38.37
2023-05-28T09:45:40.408Z,38.25
2023-05-28T09:48:06.973Z,39.35
2023-05-28T09:50:40.330Z,38.54
2023-05-28T09:53:08.848Z,38.32
2023-05-28T09:55:36.842Z,39.05
2023-05-28T09:58:07.507Z,38.51
2023-05-28T10:00:41.656Z,37.31
2023-05-28T10:03:27.366Z,38.56
2023-05-28T10:05:58.577Z,38.24
2023-05-28T10:08:26.169Z,36.96
2023-05-28T10:10:55.000Z,37.16
2023-05-28T10:13:24.458Z,38.52
2023-05-28T10:15:51.752Z,38.03
2023-05-28T10:18:24.845Z,39.39
2023-05-28T10:20:52.310Z,37.91
2023-05-28T10:23:21.958Z,39.56
2023-05-28T10:25:51.560Z,38.90
2023-05-28T10:28:21.326Z,38.14
2023-05-28T10:31:01.725Z,38.79
2023-05-28T10:33:28.879Z,37.86
2023-05-28T10:36:01.786Z,35.97
2023-05-28T10:38:31.780Z,37.93
2023-05-28T10:41:02.613Z,36.81
2023-05-28T10:43:43.282Z,35.78
2023-05-28T10:46:13.686Z,37.11
2023-05-28T10:49:13.779Z,35.47
2023-05-28T10:51:47.733Z,36.48
2023-05-28T10:54:25.731Z,33.92
2023-05-28T10:57:22.154Z,34.10
2023-05-28T11:00:08.165Z,34.35
2023-05-28T11:02:35.526Z,35.79
2023-05-28T11:05:08.987Z,34.83
2023-05-28T11:07:40.978Z,35.46
2023-05-28T11:10:14.123Z,35.13
2023-05-28T11:12:42.112Z,34.19
2023-05-28T11:15:10.774Z,35.04
2023-05-28T11:17:46.795Z,35.75
2023-05-28T11:20:20.093Z,35.13
2023-05-28T11:22:54.754Z,35.06
2023-05-28T11:25:23.335Z,34.81
2023-05-28T11:27:51.734Z,34.84
2023-05-28T11:30:20.367Z,32.90
2023-05-28T11:32:49.390Z,34.89
2023-05-28T11:35:17.345Z,34.50
2023-05-28T11:37:45.997Z,32.34
2023-05-28T11:40:14.987Z,33.31
2023-05-28T11:42:49.585Z,33.95
2023-05-28T11:45:16.825Z,34.39
2023-05-28T11:47:44.049Z,34.25
2023-05-28T11:50:15.893Z,33.97
2023-05-28T11:52:43.893Z,34.21
2023-05-28T11:55:11.824Z,34.92
2023-05-28T11:57:41.566Z,35.06
2023-05-28T12:00:13.353Z,34.10
2023-05-28T12:02:49.471Z,34.41
2023-05-28T12:05:18.274Z,33.50
2023-05-28T12:07:49.275Z,34.11
2023-05-28T12:10:25.324Z,33.79
2023-05-28T12:12:53.878Z,34.74
2023-05-28T12:15:26.157Z,33.56
2023-05-28T12:17:59.808Z,34.66
2023-05-28T12:20:26.386Z,34.62
2023-05-28T12:23:16.317Z,33.23
2023-05-28T12:25:50.741Z,33.04
2023-05-28T12:28:19.425Z,34.42
2023-05-28T12:30:52.206Z,33.95
2023-05-28T12:33:18.923Z,33.74
2023-05-28T12:35:45.713Z,34.56
2023-05-28T12:38:15.468Z,34.82
2023-05-28T12:40:42.444Z,33.89
2023-05-28T12:43:09.563Z,32.99
2023-05-28T12:45:36.372Z,34.92
2023-05-28T12:48:07.859Z,34.33
2023-05-28T12:50:34.559Z,34.60
2023-05-28T12:53:01.388Z,34.13
2023-05-28T12:55:27.955Z,34.31
2023-05-28T12:57:56.668Z,34.04
2023-05-28T13:00:25.343Z,33.18
2023-05-28T13:02:52.165Z,34.33
2023-05-28T13:05:21.009Z,33.91
2023-05-28T13:07:49.821Z,33.46
2023-05-28T13:10:16.420Z,34.20
2023-05-28T13:12:49.475Z,33.99
2023-05-28T13:15:16.293Z,34.00
2023-05-28T13:17:42.875Z,34.44
2023-05-28T13:20:12.196Z,32.91
2023-05-28T13:22:39.188Z,34.43
2023-05-28T13:25:08.848Z,33.59
2023-05-28T13:27:36.031Z,34.41
2023-05-28T13:30:06.846Z,34.68
2023-05-28T13:32:33.609Z,33.57
2023-05-28T13:35:12.039Z,34.96
2023-05-28T13:37:39.880Z,34.03
2023-05-28T13:40:11.675Z,33.49
2023-05-28T13:42:39.190Z,34.88
2023-05-28T13:45:08.708Z,34.60
2023-05-28T13:47:35.271Z,33.23
2023-05-28T13:50:03.704Z,34.51
2023-05-28T13:52:30.408Z,33.84
2023-05-28T13:54:56.984Z,34.36
2023-05-28T13:57:27.780Z,33.52
2023-05-28T13:59:54.299Z,34.25
2023-05-28T14:02:20.888Z,34.68
2023-05-28T14:04:47.600Z,34.64
2023-05-28T14:07:16.391Z,34.04
2023-05-28T14:09:43.111Z,33.98
2023-05-28T14:14:44.688Z,34.43
2023-05-28T14:17:11.291Z,33.29
2023-05-28T14:19:39.680Z,33.89
2023-05-28T14:22:06.210Z,32.91
2023-05-28T14:24:33.714Z,33.80
2023-05-28T14:27:02.273Z,33.67
2023-05-28T14:29:28.825Z,33.14
2023-05-28T14:31:55.473Z,32.38
2023-05-28T14:34:22.381Z,33.43
2023-05-28T14:36:49.236Z,32.83
2023-05-28T14:39:15.844Z,34.30
2023-05-28T14:41:42.506Z,34.03
2023-05-28T14:44:09.162Z,33.36
2023-05-28T14:46:35.814Z,33.09
2023-05-28T14:49:04.168Z,34.19
2023-05-28T14:51:31.627Z,34.61
2023-05-28T14:53:58.453Z,33.54
2023-05-28T14:56:25.328Z,33.34
2023-05-28T15:01:46.443Z,33.39
2023-05-28T15:04:13.287Z,33.49
2023-05-28T15:06:39.868Z,33.72
2023-05-28T15:09:10.916Z,32.96
2023-05-28T15:11:37.424Z,32.63
2023-05-28T15:14:03.947Z,32.58
2023-05-28T15:16:35.185Z,32.55
2023-05-28T15:19:01.732Z,33.51
2023-05-28T15:21:28.236Z,32.52
2023-05-28T15:23:55.094Z,33.36
2023-05-28T15:26:25.778Z,33.58
2023-05-28T15:28:52.382Z,33.76
2023-05-28T15:31:20.859Z,33.62
2023-05-28T15:33:47.491Z,33.95
2023-05-28T15:36:14.620Z,33.12
2023-05-28T15:38:41.525Z,32.59
2023-05-28T15:41:08.531Z,33.49
2023-05-28T15:43:35.165Z,33.56
2023-05-28T15:46:03.796Z,33.78
2023-05-28T15:48:30.699Z,32.34
2023-05-28T15:50:57.207Z,33.37
2023-05-28T15:53:27.225Z,32.52
2023-05-28T15:55:54.119Z,32.37
2023-05-28T15:58:25.700Z,32.67
2023-05-28T16:00:57.540Z,33.09
2023-05-28T16:03:26.758Z,33.00
2023-05-28T16:05:53.819Z,33.13
2023-05-28T16:08:20.882Z,32.12
2023-05-28T16:10:47.983Z,32.84
2023-05-28T16:13:15.392Z,32.47
2023-05-28T16:15:44.596Z,32.53
2023-05-28T16:18:12.780Z,33.32
2023-05-28T16:20:39.998Z,33.02
2023-05-28T16:23:08.710Z,33.79
2023-05-28T16:25:35.559Z,33.12
2023-05-28T16:28:02.380Z,34.16
2023-05-28T16:30:29.580Z,34.18
2023-05-28T16:33:07.894Z,34.13
2023-05-28T16:35:44.062Z,34.02
2023-05-28T16:38:10.977Z,34.60
2023-05-28T16:40:47.623Z,35.01
2023-05-28T16:43:14.575Z,34.53
2023-05-28T16:45:43.674Z,34.88
2023-05-28T16:48:11.881Z,34.25
2023-05-28T16:50:39.084Z,34.54
2023-05-28T16:53:13.565Z,34.68
2023-05-28T16:55:40.266Z,34.60
2023-05-28T16:58:09.156Z,33.77
2023-05-28T17:00:35.857Z,33.73
2023-05-28T17:03:02.443Z,33.85
2023-05-28T17:05:29.137Z,33.93
2023-05-28T17:07:55.857Z,34.45
2023-05-28T17:13:18.811Z,33.44
2023-05-28T17:15:48.911Z,34.34
2023-05-28T17:18:16.792Z,34.10
2023-05-28T17:20:43.658Z,34.74
2023-05-28T17:23:10.329Z,34.82
2023-05-28T17:25:36.818Z,34.71
2023-05-28T17:28:05.133Z,35.44
2023-05-28T17:30:37.326Z,35.36
2023-05-28T17:33:04.101Z,35.85
2023-05-28T17:35:30.756Z,35.65
2023-05-28T17:37:57.342Z,35.98
2023-05-28T17:40:24.081Z,36.16
2023-05-28T17:43:02.030Z,35.90
2023-05-28T17:45:29.260Z,36.33
2023-05-28T17:47:55.819Z,35.96
2023-05-28T17:50:22.788Z,36.43
2023-05-28T17:52:49.309Z,36.38
2023-05-28T17:55:17.884Z,36.77
2023-05-28T17:57:52.630Z,36.27
2023-05-28T18:00:19.946Z,36.60
2023-05-28T18:02:46.812Z,37.04
2023-05-28T18:05:13.463Z,37.76
2023-05-28T18:07:44.509Z,38.42
2023-05-28T18:10:11.286Z,38.31
2023-05-28T18:12:38.429Z,38.25
2023-05-28T18:15:07.302Z,38.65
2023-05-28T18:17:33.949Z,38.76
2023-05-28T18:20:00.768Z,38.75
2023-05-28T18:22:38.257Z,38.96
2023-05-28T18:25:07.774Z,39.33
2023-05-28T18:27:34.369Z,39.28
2023-05-28T18:30:01.685Z,39.28
2023-05-28T18:32:28.529Z,39.76
2023-05-28T18:34:55.668Z,39.73
2023-05-28T18:37:24.475Z,39.73
2023-05-28T18:42:48.740Z,40.55
2023-05-28T18:45:15.550Z,40.56
2023-05-28T18:47:42.189Z,40.82
2023-05-28T18:50:09.148Z,41.39
2023-05-28T18:52:36.143Z,41.23
2023-05-28T18:55:02.681Z,41.85
2023-05-28T18:57:29.309Z,41.75
2023-05-28T18:59:56.777Z,41.99
2023-05-28T19:02:23.462Z,41.66
2023-05-28T19:04:57.876Z,42.55
2023-05-28T19:07:26.292Z,41.72
2023-05-28T19:09:54.070Z,42.18
2023-05-28T19:12:21.223Z,42.17
2023-05-28T19:14:51.043Z,42.24
2023-05-28T19:17:17.605Z,41.62
2023-05-28T19:19:47.394Z,41.45
2023-05-28T19:22:14.030Z,41.69
2023-05-28T19:24:43.330Z,41.66
2023-05-28T19:27:11.778Z,41.64
2023-05-28T19:29:38.292Z,42.07
2023-05-28T19:32:05.009Z,42.12
2023-05-28T19:34:34.980Z,42.35
2023-05-28T19:37:01.987Z,42.61
2023-05-28T19:39:28.506Z,42.69
2023-05-28T19:41:59.596Z,42.62
2023-05-28T19:44:28.959Z,42.77
2023-05-28T19:46:55.922Z,43.23
2023-05-28T19:49:22.506Z,42.85
2023-05-28T19:51:48.985Z,43.10
2023-05-28T19:54:16.198Z,42.84
2023-05-28T19:56:45.238Z,42.88
2023-05-28T19:59:12.953Z,42.88
2023-05-28T20:01:39.522Z,42.66
2023-05-28T20:04:11.343Z,42.82
2023-05-28T20:06:37.901Z,43.01
2023-05-28T20:09:04.594Z,42.84
2023-05-28T20:11:33.343Z,42.78
2023-05-28T20:14:01.600Z,42.53
2023-05-28T20:16:30.406Z,42.71
2023-05-28T20:18:58.406Z,42.13
2023-05-28T20:21:26.459Z,41.89
2023-05-28T20:23:53.427Z,43.18
2023-05-28T20:26:25.154Z,43.32
2023-05-28T20:28:51.900Z,42.88
2023-05-28T20:31:18.493Z,44.24
2023-05-28T20:33:48.095Z,46.13
2023-05-28T20:36:21.105Z,45.99
2023-05-28T20:38:47.675Z,46.42
2023-05-28T20:41:14.561Z,45.93
2023-05-28T20:43:42.885Z,46.72
2023-05-28T20:46:11.278Z,46.05
2023-05-28T20:48:39.796Z,45.61
2023-05-28T20:51:06.399Z,45.19
2023-05-28T20:53:32.963Z,44.69
2023-05-28T20:55:59.963Z,44.93
2023-05-28T20:58:33.976Z,45.68
2023-05-28T21:01:03.505Z,45.23
2023-05-28T21:03:30.176Z,46.04
2023-05-28T21:05:56.737Z,45.83
2023-05-28T21:08:30.929Z,46.51
2023-05-28T21:10:57.471Z,46.60
2023-05-28T21:13:24.012Z,46.74
2023-05-28T21:15:50.693Z,48.15
2023-05-28T21:18:17.224Z,49.08
2023-05-28T21:20:46.430Z,49.70
2023-05-28T21:23:13.305Z,49.95
2023-05-28T21:25:39.918Z,49.77
2023-05-28T21:28:06.971Z,50.76
2023-05-28T21:30:35.546Z,51.02
2023-05-28T21:33:04.106Z,50.99
2023-05-28T21:35:30.820Z,50.77
2023-05-28T21:37:57.478Z,50.62
2023-05-28T21:40:23.961Z,50.30
2023-05-28T21:42:51.812Z,49.73
2023-05-28T21:45:26.632Z,49.56
2023-05-28T21:47:53.492Z,49.38
2023-05-28T21:50:20.245Z,48.98
2023-05-28T21:52:49.377Z,49.18
2023-05-28T21:55:15.954Z,49.26
2023-05-28T21:57:43.309Z,49.68
2023-05-28T22:00:14.644Z,49.90
2023-05-28T22:02:42.038Z,50.12
2023-05-28T22:05:08.869Z,50.32
2023-05-28T22:07:39.819Z,50.03
2023-05-28T22:10:13.029Z,50.56
2023-05-28T22:12:40.310Z,49.80
2023-05-28T22:15:10.615Z,49.58
2023-05-28T22:17:37.690Z,50.13
2023-05-28T22:20:10.472Z,50.16
2023-05-28T22:22:42.277Z,50.29
2023-05-28T22:25:10.413Z,50.48
2023-05-28T22:27:38.285Z,50.91
2023-05-28T22:30:10.588Z,50.85
2023-05-28T22:32:37.376Z,50.55
2023-05-28T22:35:05.572Z,50.40
2023-05-28T22:37:32.341Z,50.44
2023-05-28T22:39:59.580Z,49.93
2023-05-28T22:42:26.664Z,49.95
2023-05-28T22:44:53.303Z,50.30
2023-05-28T22:47:20.578Z,50.23
2023-05-28T22:49:48.838Z,51.86
2023-05-28T22:52:17.254Z,52.37
2023-05-28T22:54:43.874Z,52.33
2023-05-28T22:57:10.467Z,52.56
2023-05-28T22:59:37.170Z,52.62
2023-05-28T23:02:07.604Z,54.31
2023-05-28T23:04:34.495Z,53.30
2023-05-28T23:07:03.716Z,54.11
2023-05-28T23:09:30.706Z,54.92
2023-05-28T23:11:59.217Z,54.29
2023-05-28T23:14:27.921Z,54.63
2023-05-28T23:16:54.663Z,54.89
2023-05-28T23:19:25.232Z,54.92
2023-05-28T23:21:58.476Z,54.95
2023-05-28T23:24:24.996Z,55.21
2023-05-28T23:26:52.522Z,55.01
2023-05-28T23:29:21.052Z,57.05
2023-05-28T23:31:48.888Z,56.83
2023-05-28T23:34:19.674Z,58.21
2023-05-28T23:36:50.529Z,57.20
2023-05-28T23:39:20.548Z,58.07
2023-05-28T23:41:47.122Z,57.21
2023-05-28T23:44:18.254Z,57.05
2023-05-28T23:46:45.129Z,58.12
2023-05-28T23:49:11.780Z,57.80
2023-05-28T23:51:40.502Z,57.45
2023-05-28T23:54:07.033Z,57.08
2023-05-28T23:56:39.837Z,58.41
2023-05-28T23:59:07.292Z,57.87
